DLH334 LIMC-LIPZ
Flight info
| Callsign | DLH334 |
|---|---|
| Flight time | N/A |
| Altitude | 24000 |
| Route | SRN6LXOSKOR6S/35R OSKOR DCT NEVNI DCT NOBMI DCT ELTAR DCT IDREK DCT ADOSA L612 ALBET |
| Aircraft | A346/H-SDE2E3FGHIJ3J4J5M1RWXY/LB1D1 |
Departure
| Time | 2026-05-06 16:00 |
|---|---|
| Airport | Milan Malpensa International Airport (LIMC) |
Arrival
| Time | N/A |
|---|---|
| Airport | Venice Marco Polo Airport (LIPZ) |
| Time | Latitude | Longitude | Altitude | Speed | Heading |
|---|---|---|---|---|---|
| 2026-05-06 15:39 | 45.61450 | 8.72243 | 725 ft | 0 kts | 83° |
| 2026-05-06 15:51 | 45.61452 | 8.72261 | 729 ft | 9 kts | 81° |
| 2026-05-06 15:51 | 45.61456 | 8.72290 | 726 ft | 3 kts | 81° |
| 2026-05-06 15:52 | 45.61440 | 8.72337 | 728 ft | 1 kts | 123° |
| 2026-05-06 15:52 | 45.61429 | 8.72361 | 727 ft | 0 kts | 123° |
| 2026-05-06 15:54 | 45.61399 | 8.72411 | 726 ft | 14 kts | 133° |
| 2026-05-06 15:54 | 45.61288 | 8.72517 | 727 ft | 22 kts | 162° |
| 2026-05-06 15:54 | 45.61159 | 8.72554 | 726 ft | 17 kts | 169° |
| 2026-05-06 15:55 | 45.61103 | 8.72591 | 727 ft | 0 kts | 131° |
| 2026-05-06 15:55 | 45.61091 | 8.72622 | 726 ft | 11 kts | 113° |
| 2026-05-06 15:56 | 45.61102 | 8.72823 | 726 ft | 31 kts | 80° |
| 2026-05-06 15:56 | 45.61124 | 8.72993 | 725 ft | 0 kts | 78° |
| 2026-05-06 15:57 | 45.61125 | 8.72995 | 725 ft | 0 kts | 76° |
| 2026-05-06 15:58 | 45.61128 | 8.73004 | 725 ft | 4 kts | 66° |
| 2026-05-06 15:58 | 45.61171 | 8.73080 | 729 ft | 16 kts | 38° |
| 2026-05-06 15:58 | 45.61300 | 8.73208 | 727 ft | 28 kts | 34° |
| 2026-05-06 15:58 | 45.61474 | 8.73248 | 726 ft | 21 kts | 351° |
| 2026-05-06 15:59 | 45.61598 | 8.73253 | 728 ft | 17 kts | 43° |
| 2026-05-06 15:59 | 45.61625 | 8.73417 | 725 ft | 18 kts | 103° |
| 2026-05-06 15:59 | 45.61593 | 8.73597 | 728 ft | 20 kts | 91° |
| 2026-05-06 15:59 | 45.61680 | 8.73716 | 724 ft | 20 kts | 357° |
| 2026-05-06 16:00 | 45.61906 | 8.73661 | 727 ft | 63 kts | 349° |
| 2026-05-06 16:00 | 45.62561 | 8.73479 | 728 ft | 126 kts | 349° |
| 2026-05-06 16:00 | 45.63591 | 8.73183 | 793 ft | 170 kts | 349° |
| 2026-05-06 16:00 | 45.64771 | 8.72838 | 1408 ft | 175 kts | 349° |
| 2026-05-06 16:01 | 45.66039 | 8.72519 | 2014 ft | 186 kts | 357° |
| 2026-05-06 16:01 | 45.67355 | 8.72481 | 2613 ft | 197 kts | 2° |
| 2026-05-06 16:01 | 45.68770 | 8.72537 | 3078 ft | 211 kts | 2° |
| 2026-05-06 16:01 | 45.70313 | 8.72560 | 3454 ft | 230 kts | 0° |
| 2026-05-06 16:02 | 45.72000 | 8.72777 | 3976 ft | 245 kts | 23° |
| 2026-05-06 16:02 | 45.73320 | 8.74254 | 4818 ft | 241 kts | 59° |
| 2026-05-06 16:02 | 45.73988 | 8.76452 | 5682 ft | 240 kts | 73° |
| 2026-05-06 16:02 | 45.74467 | 8.78764 | 6471 ft | 244 kts | 83° |
| 2026-05-06 16:03 | 45.74443 | 8.81199 | 7199 ft | 247 kts | 105° |
| 2026-05-06 16:03 | 45.73885 | 8.83583 | 7856 ft | 256 kts | 117° |
| 2026-05-06 16:03 | 45.73001 | 8.85844 | 8676 ft | 260 kts | 128° |
| 2026-05-06 16:03 | 45.71928 | 8.87949 | 9586 ft | 263 kts | 130° |
| 2026-05-06 16:04 | 45.70812 | 8.90053 | 10425 ft | 267 kts | 130° |
| 2026-05-06 16:04 | 45.69676 | 8.92218 | 11302 ft | 270 kts | 130° |
| 2026-05-06 16:04 | 45.68552 | 8.94396 | 12197 ft | 273 kts | 130° |
| 2026-05-06 16:04 | 45.67424 | 8.96600 | 13099 ft | 276 kts | 130° |
| 2026-05-06 16:05 | 45.66284 | 8.98837 | 13937 ft | 280 kts | 130° |
| 2026-05-06 16:05 | 45.65190 | 9.01198 | 14708 ft | 288 kts | 120° |
| 2026-05-06 16:05 | 45.64588 | 9.03982 | 15437 ft | 302 kts | 101° |
| 2026-05-06 16:05 | 45.64497 | 9.07111 | 15917 ft | 320 kts | 94° |
| 2026-05-06 16:06 | 45.64536 | 9.10395 | 16336 ft | 338 kts | 92° |
| 2026-05-06 16:06 | 45.64591 | 9.13845 | 16735 ft | 356 kts | 92° |
| 2026-05-06 16:06 | 45.64639 | 9.17501 | 17117 ft | 375 kts | 92° |
| 2026-05-06 16:06 | 45.64674 | 9.21323 | 17482 ft | 393 kts | 93° |
| 2026-05-06 16:07 | 45.64701 | 9.25265 | 17803 ft | 410 kts | 93° |
| 2026-05-06 16:07 | 45.64723 | 9.29431 | 18322 ft | 427 kts | 93° |
| 2026-05-06 16:07 | 45.64743 | 9.33746 | 18769 ft | 438 kts | 93° |
| 2026-05-06 16:07 | 45.64764 | 9.38183 | 19437 ft | 443 kts | 93° |
| 2026-05-06 16:08 | 45.64783 | 9.42639 | 20105 ft | 448 kts | 94° |
| 2026-05-06 16:08 | 45.64797 | 9.47133 | 20744 ft | 454 kts | 94° |
| 2026-05-06 16:08 | 45.64809 | 9.51672 | 21364 ft | 459 kts | 94° |
| 2026-05-06 16:08 | 45.64818 | 9.56278 | 21734 ft | 466 kts | 94° |
| 2026-05-06 16:09 | 45.64825 | 9.60984 | 22331 ft | 472 kts | 94° |
| 2026-05-06 16:09 | 45.64835 | 9.65719 | 22929 ft | 478 kts | 94° |
| 2026-05-06 16:09 | 45.64850 | 9.70503 | 23503 ft | 483 kts | 95° |
| 2026-05-06 16:09 | 45.64866 | 9.75340 | 23788 ft | 487 kts | 95° |
| 2026-05-06 16:10 | 45.64879 | 9.80129 | 23826 ft | 487 kts | 95° |
| 2026-05-06 16:10 | 45.64890 | 9.84972 | 23824 ft | 486 kts | 95° |
| 2026-05-06 16:10 | 45.64899 | 9.89805 | 23834 ft | 487 kts | 95° |
| 2026-05-06 16:10 | 45.64906 | 9.94665 | 23845 ft | 487 kts | 95° |